createdAt,value
2022-12-20T00:02:19.476Z,101274.97
2022-12-20T00:04:49.642Z,101256.53
2022-12-20T00:07:16.274Z,101255.13
2022-12-20T00:09:43.039Z,101247.53
2022-12-20T00:12:09.694Z,101245.06
2022-12-20T00:14:39.240Z,101242.59
2022-12-20T00:17:06.177Z,101233.13
2022-12-20T00:19:33.337Z,101237.59
2022-12-20T00:22:00.209Z,101241.25
2022-12-20T00:24:27.893Z,101239.41
2022-12-20T00:26:54.481Z,101242.72
2022-12-20T00:29:21.041Z,101237.97
2022-12-20T00:31:47.675Z,101231.41
2022-12-20T00:34:14.253Z,101238.44
2022-12-20T00:36:41.026Z,101240.03
2022-12-20T00:39:07.717Z,101228.97
2022-12-20T00:41:34.256Z,101229.78
2022-12-20T00:44:01.175Z,101219.50
2022-12-20T00:46:28.528Z,101217.44
2022-12-20T00:48:55.770Z,101221.97
2022-12-20T00:51:26.856Z,101233.47
2022-12-20T00:53:53.928Z,101245.78
2022-12-20T00:56:21.370Z,101241.69
2022-12-20T00:58:48.614Z,101233.91
2022-12-20T01:01:20.824Z,101235.16
2022-12-20T01:03:51.643Z,101238.63
2022-12-20T01:06:18.184Z,101241.50
2022-12-20T01:08:45.237Z,101238.03
2022-12-20T01:11:13.727Z,101241.97
2022-12-20T01:13:42.180Z,101235.03
2022-12-20T01:16:10.553Z,101236.53
2022-12-20T01:18:37.441Z,101240.66
2022-12-20T01:21:05.034Z,101247.59
2022-12-20T01:23:31.727Z,101240.22
2022-12-20T01:25:59.112Z,101227.50
2022-12-20T01:28:25.854Z,101230.38
2022-12-20T01:30:52.642Z,101226.25
2022-12-20T01:33:19.067Z,101238.13
2022-12-20T01:35:59.233Z,101234.41
2022-12-20T01:38:25.952Z,101224.34
2022-12-20T01:40:53.023Z,101225.16
2022-12-20T01:43:19.941Z,101237.50
2022-12-20T01:45:47.071Z,101232.59
2022-12-20T01:48:18.914Z,101223.38
2022-12-20T01:50:48.082Z,101224.00
2022-12-20T01:53:18.701Z,101213.13
2022-12-20T01:55:47.750Z,101204.94
2022-12-20T01:58:16.426Z,101206.53
2022-12-20T02:00:43.276Z,101202.88
2022-12-20T02:03:12.720Z,101198.34
2022-12-20T02:05:45.249Z,101191.00
2022-12-20T02:08:13.809Z,101192.25
2022-12-20T02:10:55.832Z,101182.41
2022-12-20T02:13:46.859Z,101175.00
2022-12-20T02:16:17.995Z,101187.69
2022-12-20T02:18:55.577Z,101183.16
2022-12-20T02:21:27.362Z,101179.75
2022-12-20T02:24:03.572Z,101168.47
2022-12-20T02:26:50.964Z,101169.44
2022-12-20T02:29:28.337Z,101162.28
2022-12-20T02:32:10.143Z,101155.31
2022-12-20T02:34:37.911Z,101147.56
2022-12-20T02:37:04.904Z,101143.91
2022-12-20T02:39:32.435Z,101137.75
2022-12-20T02:42:06.162Z,101138.13
2022-12-20T02:44:53.149Z,101146.72
2022-12-20T02:47:24.916Z,101147.81
2022-12-20T02:49:52.411Z,101152.13
2022-12-20T02:52:20.995Z,101150.94
2022-12-20T02:54:48.079Z,101155.06
2022-12-20T02:57:20.285Z,101144.84
2022-12-20T03:00:08.418Z,101137.09
2022-12-20T03:02:55.801Z,101140.88
2022-12-20T03:05:25.240Z,101145.97
2022-12-20T03:07:53.371Z,101137.53
2022-12-20T03:10:22.858Z,101128.50
2022-12-20T03:12:50.050Z,101126.44
2022-12-20T03:15:17.170Z,101119.88
2022-12-20T03:17:43.823Z,101110.03
2022-12-20T03:20:11.397Z,101100.63
2022-12-20T03:22:39.040Z,101110.22
2022-12-20T03:25:05.966Z,101114.94
2022-12-20T03:27:33.337Z,101111.03
2022-12-20T03:30:05.470Z,101103.63
2022-12-20T03:32:47.825Z,101099.72
2022-12-20T03:35:33.438Z,101110.81
2022-12-20T03:38:00.185Z,101105.13
2022-12-20T03:40:33.212Z,101112.16
2022-12-20T03:43:04.137Z,101092.44
2022-12-20T03:45:30.851Z,101093.66
2022-12-20T03:48:16.732Z,101095.50
2022-12-20T03:51:23.956Z,101089.94
2022-12-20T03:57:38.985Z,101093.69
2022-12-20T04:00:30.070Z,101092.19
2022-12-20T04:07:37.276Z,101097.81
2022-12-20T04:10:41.407Z,101087.16
2022-12-20T04:13:23.378Z,101098.56
2022-12-20T04:16:00.277Z,101089.94
2022-12-20T04:22:19.180Z,101084.44
2022-12-20T04:25:07.709Z,101067.19
2022-12-20T04:27:38.841Z,101066.38
2022-12-20T04:30:26.364Z,101076.66
2022-12-20T04:33:06.053Z,101074.22
2022-12-20T04:35:55.380Z,101090.13
2022-12-20T04:38:23.966Z,101084.88
2022-12-20T04:41:05.731Z,101076.50
2022-12-20T04:47:50.194Z,101082.06
2022-12-20T04:50:29.176Z,101078.34
2022-12-20T04:59:57.484Z,101069.94
2022-12-20T05:02:24.643Z,101071.66
2022-12-20T05:05:02.395Z,101067.84
2022-12-20T05:07:43.246Z,101056.75
2022-12-20T05:14:07.566Z,101056.47
2022-12-20T05:16:40.911Z,101055.78
2022-12-20T05:19:37.188Z,101060.31
2022-12-20T05:26:19.538Z,101054.41
2022-12-20T05:32:48.274Z,101050.09
2022-12-20T05:35:34.019Z,101050.09
2022-12-20T05:38:09.200Z,101047.56
2022-12-20T05:41:08.081Z,101052.09
2022-12-20T05:43:35.737Z,101048.75
2022-12-20T05:46:40.096Z,101038.31
2022-12-20T05:57:13.087Z,101030.50
2022-12-20T06:00:22.683Z,101027.63
2022-12-20T06:03:08.711Z,101027.13
2022-12-20T06:05:36.782Z,101027.63
2022-12-20T06:08:30.791Z,101031.56
2022-12-20T06:11:13.117Z,101028.53
2022-12-20T06:14:01.238Z,101025.19
2022-12-20T06:16:53.199Z,101019.72
2022-12-20T06:19:29.839Z,101021.56
2022-12-20T06:22:11.186Z,101016.88
2022-12-20T06:25:03.620Z,101015.19
2022-12-20T06:27:39.304Z,101015.41
2022-12-20T06:30:14.136Z,101018.66
2022-12-20T06:33:19.509Z,101012.31
2022-12-20T06:36:10.890Z,101002.34
2022-12-20T06:39:29.119Z,101001.03
2022-12-20T06:45:41.955Z,100987.44
2022-12-20T06:51:56.175Z,100990.50
2022-12-20T06:55:10.330Z,100993.66
2022-12-20T06:57:51.917Z,101001.91
2022-12-20T07:00:29.075Z,101009.38
2022-12-20T07:03:16.969Z,101012.41
2022-12-20T07:06:45.667Z,101025.28
2022-12-20T07:12:25.743Z,101016.16
2022-12-20T07:15:32.716Z,101012.69
2022-12-20T07:18:27.536Z,101021.41
2022-12-20T07:20:58.557Z,101015.75
2022-12-20T07:24:23.778Z,101004.19
2022-12-20T07:27:48.947Z,100997.22
2022-12-20T07:33:40.102Z,100995.72
2022-12-20T07:39:12.852Z,101008.94
2022-12-20T07:41:59.839Z,101009.75
2022-12-20T07:44:44.502Z,101007.44
2022-12-20T07:47:58.379Z,101017.84
2022-12-20T07:50:28.606Z,101013.88
2022-12-20T07:53:09.022Z,101001.66
2022-12-20T07:55:37.156Z,101006.63
2022-12-20T07:58:24.583Z,100998.16
2022-12-20T08:00:57.853Z,100995.19
2022-12-20T08:03:31.907Z,100990.97
2022-12-20T08:06:37.460Z,100978.78
2022-12-20T08:09:26.396Z,100986.41
2022-12-20T08:23:15.786Z,100980.91
2022-12-20T08:26:23.611Z,100978.63
2022-12-20T08:29:06.552Z,100975.00
2022-12-20T08:31:49.488Z,100975.94
2022-12-20T08:34:23.117Z,100973.16
2022-12-20T08:37:15.337Z,100980.91
2022-12-20T08:40:26.491Z,100983.19
2022-12-20T08:46:41.194Z,100969.34
2022-12-20T08:49:07.704Z,100976.56
2022-12-20T08:51:37.690Z,100966.84
2022-12-20T08:57:24.846Z,100946.06
2022-12-20T08:59:51.468Z,100950.28
2022-12-20T09:02:38.902Z,100940.41
2022-12-20T09:09:00.769Z,100943.19
2022-12-20T09:11:51.359Z,100949.69
2022-12-20T09:17:56.654Z,100933.28
2022-12-20T09:20:44.409Z,100943.41
2022-12-20T09:23:14.119Z,100931.34
2022-12-20T09:26:17.471Z,100937.72
2022-12-20T09:29:25.001Z,100943.88
2022-12-20T09:35:56.448Z,100935.88
2022-12-20T09:38:37.845Z,100936.53
2022-12-20T09:41:11.811Z,100935.22
2022-12-20T09:43:53.719Z,100941.59
2022-12-20T09:46:55.116Z,100937.94
2022-12-20T09:49:31.033Z,100926.06
2022-12-20T09:52:25.544Z,100928.44
2022-12-20T09:55:28.823Z,100927.56
2022-12-20T09:58:10.777Z,100923.25
2022-12-20T10:01:24.906Z,100915.63
2022-12-20T10:04:30.330Z,100911.09
2022-12-20T10:11:16.615Z,100899.84
2022-12-20T10:14:08.183Z,100902.78
2022-12-20T10:20:38.959Z,100908.97
2022-12-20T10:23:33.569Z,100905.38
2022-12-20T10:49:41.006Z,100886.88
2022-12-20T10:52:07.693Z,100882.09
2022-12-20T10:54:34.327Z,100877.81
2022-12-20T10:57:02.313Z,100857.69
2022-12-20T10:59:35.337Z,100858.97
2022-12-20T11:02:03.223Z,100849.66
2022-12-20T11:04:35.468Z,100849.66
2022-12-20T11:07:04.078Z,100849.09
2022-12-20T11:09:32.169Z,100842.19
2022-12-20T11:12:00.325Z,100851.50
2022-12-20T11:14:30.342Z,100850.69
2022-12-20T11:17:15.532Z,100838.84
2022-12-20T11:20:00.985Z,100829.69
2022-12-20T11:22:51.203Z,100840.31
2022-12-20T11:25:25.499Z,100834.28
2022-12-20T11:27:58.086Z,100839.00
2022-12-20T11:30:27.490Z,100825.22
2022-12-20T11:33:04.217Z,100825.88
2022-12-20T11:35:40.519Z,100825.97
2022-12-20T11:38:09.808Z,100818.09
2022-12-20T11:40:40.055Z,100835.53
2022-12-20T11:43:25.517Z,100823.44
2022-12-20T11:46:01.896Z,100813.03
2022-12-20T11:48:28.355Z,100817.59
2022-12-20T11:51:15.029Z,100807.22
2022-12-20T11:53:45.641Z,100804.63
2022-12-20T11:56:15.967Z,100792.94
2022-12-20T11:58:55.772Z,100806.72
2022-12-20T12:01:26.409Z,100789.69
2022-12-20T12:04:01.762Z,100787.22
2022-12-20T12:06:31.104Z,100804.91
2022-12-20T12:09:13.191Z,100792.69
2022-12-20T12:14:52.764Z,100791.22
2022-12-20T12:17:55.038Z,100783.13
2022-12-20T12:20:25.624Z,100787.91
2022-12-20T12:22:55.007Z,100790.63
2022-12-20T12:25:21.683Z,100793.72
2022-12-20T12:27:48.273Z,100791.00
2022-12-20T12:30:18.238Z,100773.28
2022-12-20T12:32:49.158Z,100780.00
2022-12-20T12:35:15.836Z,100758.53
2022-12-20T12:37:51.750Z,100771.84
2022-12-20T12:40:25.210Z,100750.19
2022-12-20T12:43:07.089Z,100730.50
2022-12-20T12:45:36.938Z,100731.81
2022-12-20T12:48:03.763Z,100721.31
2022-12-20T12:50:33.834Z,100735.84
2022-12-20T12:53:20.703Z,100726.09
2022-12-20T12:55:52.130Z,100731.72
2022-12-20T12:58:25.107Z,100732.81
2022-12-20T13:00:54.714Z,100720.66
2022-12-20T13:03:39.659Z,100713.94
2022-12-20T13:06:25.349Z,100709.28
2022-12-20T13:09:04.151Z,100710.41
2022-12-20T13:11:30.722Z,100702.41
2022-12-20T13:14:13.072Z,100700.34
2022-12-20T13:17:10.902Z,100703.00
2022-12-20T13:19:28.019Z,100692.41
2022-12-20T13:21:58.385Z,100700.88
2022-12-20T13:24:46.796Z,100685.31
2022-12-20T13:27:23.420Z,100698.72
2022-12-20T13:30:22.409Z,100703.47
2022-12-20T13:32:49.028Z,100712.72
2022-12-20T13:35:24.894Z,100698.41
2022-12-20T13:37:57.398Z,100702.38
2022-12-20T13:40:36.505Z,100706.84
2022-12-20T13:43:06.774Z,100711.03
2022-12-20T13:45:34.078Z,100694.25
2022-12-20T13:48:10.829Z,100689.81
2022-12-20T13:50:47.394Z,100687.41
2022-12-20T13:53:17.920Z,100694.06
2022-12-20T13:55:45.241Z,100683.34
2022-12-20T13:58:29.961Z,100685.72
2022-12-20T14:01:07.477Z,100689.63
2022-12-20T14:03:40.398Z,100688.59
2022-12-20T14:06:10.324Z,100688.66
2022-12-20T14:08:47.677Z,100694.63
2022-12-20T14:11:19.350Z,100693.50
2022-12-20T14:14:15.564Z,100694.31
2022-12-20T14:16:42.251Z,100692.25
2022-12-20T14:19:13.177Z,100699.31
2022-12-20T14:21:41.552Z,100701.19
2022-12-20T14:24:15.844Z,100682.75
2022-12-20T14:26:44.808Z,100664.16
2022-12-20T14:29:12.552Z,100669.53
2022-12-20T14:31:40.851Z,100666.47
2022-12-20T14:34:13.839Z,100672.53
2022-12-20T14:36:45.018Z,100663.38
2022-12-20T14:39:31.999Z,100661.03
2022-12-20T14:42:02.698Z,100664.59
2022-12-20T14:44:30.986Z,100650.31
2022-12-20T14:47:02.552Z,100661.72
2022-12-20T14:49:34.111Z,100658.97
2022-12-20T14:52:19.473Z,100661.75
2022-12-20T14:55:11.386Z,100656.28
2022-12-20T14:57:53.470Z,100656.06
2022-12-20T15:00:23.250Z,100637.22
2022-12-20T15:03:07.583Z,100640.78
2022-12-20T15:05:38.443Z,100640.59
2022-12-20T15:08:14.120Z,100638.28
2022-12-20T15:10:42.884Z,100642.84
2022-12-20T15:13:12.099Z,100643.09
2022-12-20T15:15:38.927Z,100647.06
2022-12-20T15:18:11.076Z,100650.13
2022-12-20T15:20:37.662Z,100657.16
2022-12-20T15:23:04.410Z,100649.38
2022-12-20T15:25:39.504Z,100647.50
2022-12-20T15:28:16.963Z,100641.91
2022-12-20T15:30:44.215Z,100642.72
2022-12-20T15:33:15.235Z,100642.72
2022-12-20T15:35:41.743Z,100629.75
2022-12-20T15:38:16.528Z,100629.28
2022-12-20T15:40:44.069Z,100619.19
2022-12-20T15:43:14.903Z,100616.59
2022-12-20T15:45:43.314Z,100617.44
2022-12-20T15:48:17.593Z,100633.00
2022-12-20T15:50:48.576Z,100624.53
2022-12-20T15:53:16.349Z,100622.22
2022-12-20T15:55:43.464Z,100616.63
2022-12-20T15:58:10.541Z,100626.22
2022-12-20T16:00:40.667Z,100626.72
2022-12-20T16:03:28.711Z,100624.53
2022-12-20T16:05:56.430Z,100613.97
2022-12-20T16:08:23.019Z,100621.44
2022-12-20T16:10:51.603Z,100629.53
2022-12-20T16:13:24.008Z,100617.84
2022-12-20T16:15:51.628Z,100619.53
2022-12-20T16:18:18.289Z,100631.34
2022-12-20T16:20:44.978Z,100639.19
2022-12-20T16:23:19.135Z,100635.69
2022-12-20T16:25:45.883Z,100643.25
2022-12-20T16:28:12.833Z,100639.50
2022-12-20T16:30:39.438Z,100627.50
2022-12-20T16:33:06.719Z,100637.13
2022-12-20T16:35:37.294Z,100635.56
2022-12-20T16:38:04.285Z,100632.66
2022-12-20T16:40:32.291Z,100633.22
2022-12-20T16:42:59.618Z,100629.69
2022-12-20T16:45:28.042Z,100644.50
2022-12-20T16:47:54.668Z,100639.63
2022-12-20T16:50:22.407Z,100638.50
2022-12-20T16:52:50.313Z,100629.91
2022-12-20T16:55:24.160Z,100627.97
2022-12-20T16:57:51.503Z,100618.06
2022-12-20T17:00:21.242Z,100617.78
2022-12-20T17:02:48.315Z,100617.47
2022-12-20T17:05:20.920Z,100622.22
2022-12-20T17:10:32.716Z,100615.22
2022-12-20T17:12:59.596Z,100610.97
2022-12-20T17:15:27.824Z,100617.94
2022-12-20T17:17:56.414Z,100614.91
2022-12-20T17:20:36.992Z,100619.81
2022-12-20T17:25:53.863Z,100612.41
2022-12-20T17:28:29.339Z,100608.34
2022-12-20T17:30:57.909Z,100603.25
2022-12-20T17:33:28.748Z,100600.06
2022-12-20T17:35:59.046Z,100601.88
2022-12-20T17:38:28.723Z,100595.91
2022-12-20T17:40:56.163Z,100593.19
2022-12-20T17:43:23.106Z,100590.75
2022-12-20T17:45:49.857Z,100593.19
2022-12-20T17:48:16.382Z,100589.94
2022-12-20T17:50:43.218Z,100605.00
2022-12-20T17:53:17.024Z,100601.88
2022-12-20T17:55:43.862Z,100603.00
2022-12-20T17:58:15.274Z,100591.78
2022-12-20T18:00:44.545Z,100586.63
2022-12-20T18:03:52.963Z,100596.22
2022-12-20T18:06:08.455Z,100594.41
2022-12-20T18:08:37.123Z,100599.75
2022-12-20T18:11:24.118Z,100592.47
2022-12-20T18:13:57.703Z,100583.59
2022-12-20T18:16:29.089Z,100585.41
2022-12-20T18:18:56.040Z,100581.03
2022-12-20T18:21:24.249Z,100575.34
2022-12-20T18:23:57.346Z,100579.09
2022-12-20T18:26:25.733Z,100570.00
2022-12-20T18:28:57.318Z,100569.22
2022-12-20T18:31:30.594Z,100574.56
2022-12-20T18:34:01.213Z,100584.03
2022-12-20T18:36:29.119Z,100592.19
2022-12-20T18:38:56.828Z,100586.88
2022-12-20T18:41:31.188Z,100576.03
2022-12-20T18:44:02.730Z,100574.81
2022-12-20T18:46:29.357Z,100574.56
2022-12-20T18:48:58.049Z,100574.88
2022-12-20T18:51:28.485Z,100576.00
2022-12-20T18:53:56.029Z,100564.53
2022-12-20T18:56:28.701Z,100560.41
2022-12-20T18:59:04.479Z,100560.41
2022-12-20T19:01:44.968Z,100565.78
2022-12-20T19:04:12.040Z,100559.94
2022-12-20T19:06:39.099Z,100571.13
2022-12-20T19:09:10.271Z,100576.00
2022-12-20T19:11:37.395Z,100569.66
2022-12-20T19:14:03.960Z,100571.84
2022-12-20T19:16:33.064Z,100563.59
2022-12-20T19:19:03.939Z,100570.06
2022-12-20T19:21:34.948Z,100573.53
2022-12-20T19:24:05.247Z,100580.44
2022-12-20T19:26:31.966Z,100577.28
2022-12-20T19:29:01.869Z,100569.25
2022-12-20T19:31:30.373Z,100578.03
2022-12-20T19:33:59.186Z,100582.88
2022-12-20T19:36:30.501Z,100580.53
2022-12-20T19:38:58.389Z,100572.50
2022-12-20T19:41:26.320Z,100583.19
2022-12-20T19:43:53.039Z,100579.66
2022-12-20T19:46:28.051Z,100576.72
2022-12-20T19:48:59.240Z,100583.69
2022-12-20T19:51:29.646Z,100582.88
2022-12-20T19:53:59.773Z,100583.03
2022-12-20T19:56:28.399Z,100588.81
2022-12-20T19:58:55.958Z,100599.72
2022-12-20T20:01:25.675Z,100595.59
2022-12-20T20:03:56.968Z,100592.28
2022-12-20T20:06:26.925Z,100592.09
2022-12-20T20:09:04.682Z,100599.47
2022-12-20T20:11:31.589Z,100605.25
2022-12-20T20:14:00.650Z,100607.59
2022-12-20T20:16:27.514Z,100610.34
2022-12-20T20:18:54.308Z,100605.00
2022-12-20T20:21:23.425Z,100612.88
2022-12-20T20:23:54.440Z,100605.56
2022-12-20T20:26:23.103Z,100611.75
2022-12-20T20:28:50.285Z,100604.53
2022-12-20T20:31:17.876Z,100604.53
2022-12-20T20:33:52.784Z,100609.38
2022-12-20T20:36:20.600Z,100602.09
2022-12-20T20:38:47.669Z,100604.22
2022-12-20T20:44:21.721Z,100595.75
2022-12-20T20:46:49.429Z,100590.06
2022-12-20T20:49:17.177Z,100590.78
2022-12-20T20:51:43.785Z,100586.56
2022-12-20T20:54:10.623Z,100585.50
2022-12-20T20:56:39.469Z,100585.81
2022-12-20T20:59:10.593Z,100590.44
2022-12-20T21:01:42.007Z,100588.56
2022-12-20T21:04:08.723Z,100580.38
2022-12-20T21:06:41.039Z,100580.22
2022-12-20T21:09:08.714Z,100587.34
2022-12-20T21:11:36.928Z,100579.84
2022-12-20T21:14:03.744Z,100588.16
2022-12-20T21:16:30.397Z,100589.47
2022-12-20T21:18:58.784Z,100590.84
2022-12-20T21:21:26.378Z,100589.78
2022-12-20T21:23:53.343Z,100578.75
2022-12-20T21:26:22.117Z,100574.19
2022-12-20T21:28:48.809Z,100575.81
2022-12-20T21:31:16.871Z,100568.38
2022-12-20T21:33:45.882Z,100567.38
2022-12-20T21:36:16.806Z,100563.50
2022-12-20T21:38:51.415Z,100562.84
2022-12-20T21:41:19.124Z,100570.59
2022-12-20T21:43:49.377Z,100572.69
2022-12-20T21:46:16.155Z,100558.63
2022-12-20T21:48:54.222Z,100550.28
2022-12-20T21:51:23.287Z,100554.47
2022-12-20T21:53:53.912Z,100563.06
2022-12-20T21:56:29.512Z,100565.25
2022-12-20T21:58:56.436Z,100570.59
2022-12-20T22:01:24.490Z,100574.56
2022-12-20T22:03:57.694Z,100576.88
2022-12-20T22:06:24.493Z,100564.09
2022-12-20T22:08:51.924Z,100562.69
2022-12-20T22:11:19.405Z,100566.88
2022-12-20T22:13:46.838Z,100559.34
2022-12-20T22:16:15.347Z,100559.44
2022-12-20T22:18:42.889Z,100561.16
2022-12-20T22:21:11.853Z,100557.03
2022-12-20T22:23:38.950Z,100562.47
2022-12-20T22:26:06.868Z,100561.22
2022-12-20T22:28:33.475Z,100552.19
2022-12-20T22:31:00.113Z,100554.91
2022-12-20T22:33:26.761Z,100555.88
2022-12-20T22:35:53.511Z,100556.59
2022-12-20T22:38:20.083Z,100552.94
2022-12-20T22:40:48.290Z,100549.03
2022-12-20T22:43:14.808Z,100556.22
2022-12-20T22:45:41.422Z,100550.41
2022-12-20T22:48:07.948Z,100558.50
2022-12-20T22:50:34.419Z,100561.81
2022-12-20T22:53:01.072Z,100561.88
2022-12-20T22:55:27.609Z,100540.16
2022-12-20T22:57:54.763Z,100545.84
2022-12-20T23:00:21.486Z,100543.97
2022-12-20T23:02:53.364Z,100537.81
2022-12-20T23:05:31.969Z,100536.44
2022-12-20T23:07:58.547Z,100545.47
2022-12-20T23:10:43.938Z,100548.44
2022-12-20T23:13:30.490Z,100544.06
2022-12-20T23:15:57.117Z,100545.13
2022-12-20T23:18:23.748Z,100548.69
2022-12-20T23:21:10.072Z,100538.78
2022-12-20T23:23:55.590Z,100541.28
2022-12-20T23:26:23.468Z,100533.22
2022-12-20T23:28:50.251Z,100530.22
2022-12-20T23:31:17.368Z,100542.03
2022-12-20T23:33:44.180Z,100533.88
2022-12-20T23:36:11.129Z,100522.09
2022-12-20T23:38:38.350Z,100540.34
2022-12-20T23:41:15.824Z,100536.03
2022-12-20T23:43:42.708Z,100536.59
2022-12-20T23:46:10.649Z,100540.41
2022-12-20T23:48:37.347Z,100539.34
2022-12-20T23:51:12.827Z,100531.91
2022-12-20T23:53:39.612Z,100526.41
2022-12-20T23:56:06.203Z,100528.91
2022-12-20T23:58:32.774Z,100530.25
